Time;durP1;ratioP1;P1;durP2;ratioP2;P2;SDS_P1;SDS_P2;PMS_P1;PMS_P2;Temp;Humidity;BMP_temperature;BMP_pressure;BME280_temperature;BME280_humidity;BME280_pressure;Samples;Min_cycle;Max_cycle;Signal;HPM_P1;HPM_P2
2021/08/07 12:01:27;;;;;;;27.45;3.20;;;;;;;;;;5130921;27;1345852;-95
2021/08/07 12:03:54;;;;;;;26.50;3.03;;;;;;;;;;5178080;27;20047;-83
2021/08/07 12:06:20;;;;;;;29.92;2.88;;;;;;;;;;5157273;27;20083;-88
2021/08/07 12:08:47;;;;;;;27.88;3.33;;;;;;;;;;5176452;27;20394;-85
2021/08/07 12:11:14;;;;;;;23.85;2.85;;;;;;;;;;5175918;27;20489;-91
2021/08/07 12:13:41;;;;;;;16.50;2.35;;;;;;;;;;5174844;27;20011;-85
2021/08/07 12:16:12;;;;;;;25.88;2.63;;;;;;;;;;5151927;27;20072;-84
2021/08/07 12:18:38;;;;;;;13.35;2.08;;;;;;;;;;5135126;27;20030;-86
2021/08/07 12:51:13;;;;;;;13.70;2.05;;;;;;;;;;5175769;27;20415;-78
2021/08/07 12:53:40;;;;;;;13.68;1.73;;;;;;;;;;5153370;27;20026;-78
2021/08/07 12:56:10;;;;;;;20.77;1.92;;;;;;;;;;5119983;28;20039;-89
2021/08/07 12:58:38;;;;;;;19.15;1.90;;;;;;;;;;5116512;28;20041;-84
2021/08/07 15:09:53;;;;;;;14.27;1.00;;;;;;;;;;5160726;27;20364;-64
2021/08/07 15:12:19;;;;;;;7.68;1.25;;;;;;;;;;5119568;28;20622;-69
2021/08/07 15:14:45;;;;;;;16.60;1.00;;;;;;;;;;5110472;28;20479;-69
2021/08/07 15:17:11;;;;;;;5.20;0.80;;;;;;;;;;5110754;28;20067;-68
2021/08/07 15:19:37;;;;;;;6.38;1.10;;;;;;;;;;5094774;28;20417;-69
2021/08/07 15:22:03;;;;;;;4.60;0.98;;;;;;;;;;5123358;28;20059;-69
2021/08/07 15:24:29;;;;;;;9.23;1.10;;;;;;;;;;5125144;28;20046;-68
2021/08/07 15:26:56;;;;;;;5.30;1.15;;;;;;;;;;5118343;28;20036;-69
2021/08/07 15:29:21;;;;;;;7.28;1.10;;;;;;;;;;5097736;28;20127;-66
2021/08/07 15:31:47;;;;;;;6.63;1.15;;;;;;;;;;5089409;28;20095;-68
2021/08/07 15:34:13;;;;;;;7.35;1.05;;;;;;;;;;5114816;28;20023;-68
2021/08/07 15:36:39;;;;;;;6.90;0.90;;;;;;;;;;5122660;28;20379;-69
2021/08/07 15:39:06;;;;;;;6.05;0.90;;;;;;;;;;5092025;28;20028;-68
2021/08/07 15:41:31;;;;;;;5.57;1.15;;;;;;;;;;5091782;28;20024;-68
2021/08/07 15:43:57;;;;;;;5.35;1.00;;;;;;;;;;5110332;28;20026;-68
2021/08/07 15:46:23;;;;;;;8.60;1.02;;;;;;;;;;5091711;28;20063;-68
2021/08/07 15:48:49;;;;;;;4.47;0.80;;;;;;;;;;5110070;28;20089;-68
2021/08/07 15:51:15;;;;;;;5.32;1.10;;;;;;;;;;5109799;28;20024;-68
2021/08/07 15:53:43;;;;;;;5.68;0.98;;;;;;;;;;5109984;28;20043;-67
2021/08/07 15:56:11;;;;;;;8.27;1.10;;;;;;;;;;5109880;28;20044;-68
2021/08/07 15:58:37;;;;;;;9.23;1.00;;;;;;;;;;5109810;28;20073;-68
2021/08/07 16:01:03;;;;;;;4.80;0.90;;;;;;;;;;5110095;28;20024;-68
2021/08/07 16:03:29;;;;;;;6.00;1.00;;;;;;;;;;5109793;28;20032;-68
2021/08/07 16:05:55;;;;;;;3.00;0.93;;;;;;;;;;5109831;28;20027;-68
2021/08/07 16:08:21;;;;;;;6.95;1.05;;;;;;;;;;5113317;28;20386;-68
2021/08/07 16:10:47;;;;;;;2.83;0.93;;;;;;;;;;5130239;28;20079;-67
2021/08/07 16:13:13;;;;;;;3.33;0.80;;;;;;;;;;5125262;27;20032;-67
2021/08/07 16:15:39;;;;;;;3.47;0.70;;;;;;;;;;5091305;28;20028;-68
2021/08/07 16:18:05;;;;;;;3.95;1.02;;;;;;;;;;5109396;28;20031;-68
2021/08/07 16:20:31;;;;;;;2.80;0.77;;;;;;;;;;5099822;28;20024;-69
2021/08/07 16:22:58;;;;;;;2.88;0.80;;;;;;;;;;5095953;28;20020;-67
2021/08/07 16:25:24;;;;;;;3.35;0.90;;;;;;;;;;5095642;28;20427;-67
2021/08/07 16:27:50;;;;;;;1.35;0.70;;;;;;;;;;5095873;28;20042;-66
2021/08/07 16:30:15;;;;;;;2.08;0.90;;;;;;;;;;5095993;28;20052;-66
2021/08/07 16:32:42;;;;;;;4.97;0.70;;;;;;;;;;5077052;28;20031;-66
2021/08/07 16:35:08;;;;;;;1.27;0.60;;;;;;;;;;5095528;28;20024;-66
2021/08/07 16:37:34;;;;;;;5.15;0.90;;;;;;;;;;5095254;28;20024;-67
2021/08/07 16:40:00;;;;;;;2.17;0.70;;;;;;;;;;5095189;28;20030;-69
2021/08/07 16:42:26;;;;;;;3.88;1.00;;;;;;;;;;5094968;28;20379;-67
2021/08/07 16:44:53;;;;;;;2.05;0.90;;;;;;;;;;5094986;28;20031;-67
2021/08/07 16:47:19;;;;;;;5.68;1.27;;;;;;;;;;5094927;28;20063;-66
2021/08/07 16:49:45;;;;;;;1.25;0.80;;;;;;;;;;5094723;28;20044;-66
2021/08/07 16:52:11;;;;;;;2.55;0.90;;;;;;;;;;5076653;28;20123;-69
2021/08/07 16:54:37;;;;;;;3.45;0.90;;;;;;;;;;5095109;28;20054;-67
2021/08/07 16:57:04;;;;;;;2.33;0.88;;;;;;;;;;5094791;28;20066;-67
2021/08/07 16:59:30;;;;;;;5.78;1.33;;;;;;;;;;5094671;28;20020;-67
2021/08/07 17:01:56;;;;;;;3.88;0.88;;;;;;;;;;5094818;28;20024;-67
2021/08/07 17:04:22;;;;;;;3.17;1.00;;;;;;;;;;5076230;28;20039;-67
2021/08/07 17:06:48;;;;;;;2.55;0.70;;;;;;;;;;5094617;28;20040;-68
2021/08/07 17:09:14;;;;;;;3.53;1.00;;;;;;;;;;5105814;28;20130;-67
2021/08/07 17:11:40;;;;;;;5.35;1.20;;;;;;;;;;5115030;28;20063;-68
2021/08/07 17:14:07;;;;;;;4.60;1.20;;;;;;;;;;5115047;28;20031;-68
2021/08/07 17:16:33;;;;;;;3.17;1.00;;;;;;;;;;5096679;28;20450;-67
2021/08/07 17:18:59;;;;;;;5.30;1.50;;;;;;;;;;5096348;28;20020;-68
2021/08/07 17:21:25;;;;;;;3.58;0.93;;;;;;;;;;5114802;28;20120;-68
2021/08/07 17:23:53;;;;;;;2.28;0.93;;;;;;;;;;5096452;28;20020;-67
2021/08/07 17:26:19;;;;;;;3.20;0.88;;;;;;;;;;5114602;28;20414;-68
2021/08/07 17:28:45;;;;;;;2.17;0.73;;;;;;;;;;5114252;28;20070;-68
2021/08/07 17:31:11;;;;;;;4.03;0.90;;;;;;;;;;5113803;28;20051;-68
2021/08/07 17:33:38;;;;;;;2.28;0.90;;;;;;;;;;5078548;28;20036;-66
2021/08/07 17:36:04;;;;;;;2.92;0.95;;;;;;;;;;5094262;28;20360;-68
2021/08/07 17:38:30;;;;;;;3.08;0.80;;;;;;;;;;5093884;28;20024;-69
2021/08/07 17:40:56;;;;;;;1.42;0.70;;;;;;;;;;5094741;28;20020;-69
2021/08/07 17:43:22;;;;;;;8.32;0.95;;;;;;;;;;5094194;28;20493;-70
2021/08/07 17:45:48;;;;;;;17.00;1.58;;;;;;;;;;5076180;28;20032;-70
2021/08/07 17:48:14;;;;;;;23.05;1.25;;;;;;;;;;5093855;28;20049;-70
2021/08/07 17:50:40;;;;;;;11.20;0.95;;;;;;;;;;5093737;28;20028;-70
2021/08/07 17:53:07;;;;;;;12.93;1.02;;;;;;;;;;5093917;28;20024;-71
2021/08/07 17:55:34;;;;;;;4.07;0.90;;;;;;;;;;5093927;28;20082;-68
2021/08/07 17:58:01;;;;;;;12.65;1.52;;;;;;;;;;5091593;28;20136;-64
2021/08/07 18:00:28;;;;;;;8.48;1.00;;;;;;;;;;5093629;28;20025;-63
2021/08/07 18:02:54;;;;;;;3.17;0.90;;;;;;;;;;5092323;28;20020;-63
2021/08/07 18:05:21;;;;;;;5.13;0.90;;;;;;;;;;5093262;28;20103;-63
2021/08/07 18:07:47;;;;;;;6.38;0.77;;;;;;;;;;5092930;28;20471;-62
2021/08/07 18:10:13;;;;;;;6.40;0.95;;;;;;;;;;5107283;28;20047;-62
2021/08/07 18:12:39;;;;;;;4.95;1.08;;;;;;;;;;5093023;28;20024;-63
2021/08/07 18:15:06;;;;;;;7.35;0.90;;;;;;;;;;5093059;28;20032;-63
2021/08/07 18:17:33;;;;;;;4.97;0.68;;;;;;;;;;5093009;28;20021;-63
2021/08/07 18:19:59;;;;;;;12.48;1.00;;;;;;;;;;5092811;28;20081;-64
2021/08/07 18:22:25;;;;;;;21.50;0.88;;;;;;;;;;5092922;28;20032;-62
2021/08/07 18:24:51;;;;;;;23.02;1.10;;;;;;;;;;5092966;28;20359;-63
2021/08/07 18:27:17;;;;;;;13.38;1.10;;;;;;;;;;5092909;28;20024;-63
2021/08/07 18:29:43;;;;;;;8.10;1.17;;;;;;;;;;5092684;28;20043;-64
2021/08/07 18:32:09;;;;;;;19.10;1.20;;;;;;;;;;5092801;28;20020;-64
2021/08/07 18:34:35;;;;;;;12.60;1.20;;;;;;;;;;5092608;28;20030;-64
2021/08/07 18:37:01;;;;;;;12.25;1.10;;;;;;;;;;5092155;28;20027;-64
2021/08/07 18:39:27;;;;;;;17.90;0.93;;;;;;;;;;5092637;28;20024;-64
2021/08/07 18:41:54;;;;;;;19.00;1.33;;;;;;;;;;5092447;28;20020;-64
2021/08/07 18:44:22;;;;;;;20.15;1.23;;;;;;;;;;5075965;28;20484;-63
2021/08/07 18:46:49;;;;;;;14.75;1.30;;;;;;;;;;5072609;28;20056;-63
2021/08/07 18:49:15;;;;;;;10.88;0.88;;;;;;;;;;5060100;28;20026;-63
2021/08/07 18:51:42;;;;;;;14.32;1.48;;;;;;;;;;5092886;28;20024;-63
2021/08/07 18:54:08;;;;;;;16.23;1.42;;;;;;;;;;5092355;28;20124;-63
2021/08/07 18:56:35;;;;;;;13.65;1.10;;;;;;;;;;5092070;28;20020;-63
2021/08/07 18:59:01;;;;;;;22.40;1.70;;;;;;;;;;5097465;28;20020;-63
2021/08/07 19:01:27;;;;;;;21.08;1.23;;;;;;;;;;5110789;28;20030;-63
2021/08/07 19:03:54;;;;;;;7.78;0.70;;;;;;;;;;5068660;28;20456;-64
2021/08/07 19:06:20;;;;;;;11.90;1.35;;;;;;;;;;5069079;28;20020;-64
2021/08/07 19:08:46;;;;;;;17.75;1.00;;;;;;;;;;5055673;28;20061;-63
2021/08/07 19:11:12;;;;;;;11.80;1.20;;;;;;;;;;5025967;28;20025;-64
2021/08/07 19:13:38;;;;;;;14.73;1.33;;;;;;;;;;5092151;28;20024;-64
2021/08/07 19:16:04;;;;;;;10.23;0.95;;;;;;;;;;5092027;28;20020;-63
2021/08/07 19:18:30;;;;;;;18.70;1.38;;;;;;;;;;5087506;28;20085;-62
2021/08/07 19:20:57;;;;;;;23.15;1.20;;;;;;;;;;4989809;28;20031;-63
2021/08/07 19:23:24;;;;;;;8.38;1.10;;;;;;;;;;4989591;28;20030;-64
2021/08/07 19:25:50;;;;;;;11.32;1.20;;;;;;;;;;4990007;28;20461;-64
2021/08/07 19:28:16;;;;;;;9.10;1.85;;;;;;;;;;4990387;28;20042;-63
2021/08/07 19:30:42;;;;;;;6.00;1.00;;;;;;;;;;4990029;28;20022;-63
2021/08/07 19:33:09;;;;;;;8.23;1.15;;;;;;;;;;5057282;28;20545;-64
2021/08/07 19:35:35;;;;;;;5.18;0.98;;;;;;;;;;5057097;28;20041;-65
2021/08/07 19:38:01;;;;;;;12.32;1.10;;;;;;;;;;4989857;28;20054;-64
2021/08/07 19:40:27;;;;;;;6.72;0.70;;;;;;;;;;4989968;28;20050;-64
2021/08/07 19:42:53;;;;;;;10.60;1.10;;;;;;;;;;4990250;28;20061;-65
2021/08/07 19:45:19;;;;;;;4.55;1.10;;;;;;;;;;4989954;28;20034;-64
2021/08/07 19:47:45;;;;;;;5.88;0.70;;;;;;;;;;4989827;28;20030;-64
2021/08/07 19:50:11;;;;;;;10.82;0.90;;;;;;;;;;5057548;28;20034;-63
2021/08/07 19:52:37;;;;;;;12.75;1.17;;;;;;;;;;4983539;28;20022;-62
2021/08/07 19:55:04;;;;;;;9.10;0.98;;;;;;;;;;5040785;28;20045;-63
2021/08/07 19:57:30;;;;;;;5.20;0.77;;;;;;;;;;5070406;28;20057;-61
2021/08/07 19:59:56;;;;;;;8.55;0.93;;;;;;;;;;5003914;28;20050;-62
2021/08/07 20:02:26;;;;;;;5.53;0.88;;;;;;;;;;5008151;28;20065;-62
2021/08/07 20:04:52;;;;;;;2.05;1.00;;;;;;;;;;5009807;28;20069;-61
2021/08/07 20:07:18;;;;;;;3.78;0.82;;;;;;;;;;5000786;28;20058;-62
2021/08/07 20:09:44;;;;;;;5.82;0.70;;;;;;;;;;5102084;28;20077;-63
2021/08/07 20:12:10;;;;;;;3.05;1.10;;;;;;;;;;5105808;28;20090;-61
2021/08/07 20:14:36;;;;;;;4.38;0.80;;;;;;;;;;5098443;28;20059;-61
2021/08/07 20:17:02;;;;;;;4.97;0.60;;;;;;;;;;5109385;28;20035;-61
2021/08/07 20:19:28;;;;;;;6.60;0.70;;;;;;;;;;5094790;28;20459;-61
2021/08/07 20:21:54;;;;;;;4.50;0.80;;;;;;;;;;5106733;28;20059;-62
2021/08/07 20:24:20;;;;;;;2.25;0.70;;;;;;;;;;5102256;28;20077;-62
2021/08/07 20:26:46;;;;;;;3.42;0.70;;;;;;;;;;5106008;28;20107;-62
2021/08/07 20:29:12;;;;;;;3.55;0.80;;;;;;;;;;5087214;28;20027;-62
2021/08/07 20:31:39;;;;;;;2.55;0.68;;;;;;;;;;5095454;28;20032;-61
2021/08/07 20:34:05;;;;;;;3.92;0.70;;;;;;;;;;5095391;28;20054;-61
2021/08/07 20:36:31;;;;;;;2.20;0.70;;;;;;;;;;5095248;28;20103;-61
2021/08/07 20:38:57;;;;;;;4.13;0.70;;;;;;;;;;5095206;28;20035;-62
2021/08/07 20:41:24;;;;;;;3.25;0.85;;;;;;;;;;5077005;28;20154;-63
2021/08/07 20:43:50;;;;;;;4.97;0.70;;;;;;;;;;5095155;28;20429;-63
2021/08/07 20:46:16;;;;;;;4.43;0.73;;;;;;;;;;5095070;28;20471;-62
2021/08/07 20:48:42;;;;;;;2.00;0.70;;;;;;;;;;5095131;28;20127;-60
2021/08/07 20:51:08;;;;;;;16.75;0.82;;;;;;;;;;5094950;28;20054;-61
2021/08/07 20:53:34;;;;;;;4.93;0.70;;;;;;;;;;5094693;28;20035;-61
2021/08/07 20:56:00;;;;;;;3.28;0.75;;;;;;;;;;5094886;28;20529;-61
2021/08/07 20:58:26;;;;;;;1.77;0.70;;;;;;;;;;5095013;28;20024;-61
2021/08/07 21:00:51;;;;;;;2.47;0.70;;;;;;;;;;5095102;28;20030;-63
2021/08/07 21:03:19;;;;;;;3.08;0.70;;;;;;;;;;5095088;28;20021;-64
2021/08/07 21:05:45;;;;;;;3.40;0.60;;;;;;;;;;5094675;28;20561;-61
2021/08/07 21:08:12;;;;;;;3.75;0.70;;;;;;;;;;5094399;28;20044;-64
2021/08/07 21:10:37;;;;;;;2.33;0.40;;;;;;;;;;5094497;28;20122;-64
2021/08/07 21:13:03;;;;;;;4.30;0.60;;;;;;;;;;5094754;28;20095;-62
2021/08/07 21:15:29;;;;;;;3.03;0.70;;;;;;;;;;5094421;28;20077;-62
2021/08/07 21:17:55;;;;;;;2.25;0.80;;;;;;;;;;5094604;28;20077;-61
2021/08/07 21:20:21;;;;;;;6.35;0.80;;;;;;;;;;5094487;28;20063;-63
2021/08/07 21:22:47;;;;;;;4.47;0.95;;;;;;;;;;5094537;28;20040;-61
2021/08/07 21:25:14;;;;;;;5.25;0.70;;;;;;;;;;5094456;28;20028;-64
2021/08/07 21:27:42;;;;;;;2.50;0.60;;;;;;;;;;5094363;28;20020;-61
2021/08/07 21:30:09;;;;;;;2.03;0.52;;;;;;;;;;5094341;28;20477;-62
2021/08/07 21:32:39;;;;;;;6.88;1.27;;;;;;;;;;5094091;28;20467;-62
2021/08/07 21:35:07;;;;;;;4.88;0.68;;;;;;;;;;5094351;28;20402;-61
2021/08/07 21:37:33;;;;;;;2.97;0.60;;;;;;;;;;5094051;28;20462;-61
2021/08/07 21:39:59;;;;;;;6.68;0.70;;;;;;;;;;5094139;28;20020;-60
2021/08/07 21:42:27;;;;;;;2.88;0.70;;;;;;;;;;5093751;28;20501;-62
2021/08/07 21:44:53;;;;;;;1.77;0.63;;;;;;;;;;5094206;28;20075;-61
2021/08/07 21:47:19;;;;;;;4.53;0.70;;;;;;;;;;5093863;28;20408;-61
2021/08/07 21:49:45;;;;;;;3.97;0.70;;;;;;;;;;5093941;28;20028;-60
2021/08/07 21:52:11;;;;;;;1.58;0.90;;;;;;;;;;5093842;28;20016;-61
2021/08/07 21:54:37;;;;;;;2.70;0.60;;;;;;;;;;5093779;28;20053;-62
2021/08/07 21:57:03;;;;;;;3.30;0.60;;;;;;;;;;5093397;28;20101;-62
2021/08/07 21:59:29;;;;;;;6.93;0.70;;;;;;;;;;5094195;28;20028;-60
2021/08/07 22:01:55;;;;;;;2.70;0.90;;;;;;;;;;5093734;28;20024;-61
2021/08/07 22:04:22;;;;;;;5.65;0.80;;;;;;;;;;5093537;28;20375;-61
2021/08/07 22:06:48;;;;;;;3.92;0.70;;;;;;;;;;5093870;28;20020;-62
2021/08/07 22:09:17;;;;;;;5.60;0.75;;;;;;;;;;5093046;28;20062;-62
2021/08/07 22:11:43;;;;;;;14.57;0.82;;;;;;;;;;5093391;28;20115;-62
2021/08/07 22:14:09;;;;;;;2.67;0.60;;;;;;;;;;5075510;28;20031;-61
2021/08/07 22:16:35;;;;;;;8.90;0.73;;;;;;;;;;5093323;28;20466;-62
2021/08/07 22:19:01;;;;;;;4.10;0.70;;;;;;;;;;5074955;28;20054;-61
2021/08/07 22:21:27;;;;;;;1.35;0.50;;;;;;;;;;5093268;28;20020;-61
2021/08/07 22:23:53;;;;;;;2.95;0.60;;;;;;;;;;5093408;28;20077;-60
2021/08/07 22:26:19;;;;;;;7.32;0.65;;;;;;;;;;5093208;28;20450;-61
2021/08/07 22:28:45;;;;;;;1.95;0.70;;;;;;;;;;5093202;28;20024;-61
2021/08/07 22:31:12;;;;;;;3.08;0.70;;;;;;;;;;5093157;28;20102;-62
2021/08/07 22:33:40;;;;;;;5.88;0.70;;;;;;;;;;5093250;28;20016;-60
2021/08/07 22:36:06;;;;;;;7.35;0.82;;;;;;;;;;5093163;28;20228;-61
2021/08/07 22:38:32;;;;;;;6.00;0.80;;;;;;;;;;5093042;28;20099;-60
2021/08/07 22:40:58;;;;;;;4.93;0.70;;;;;;;;;;5092844;28;20085;-61
2021/08/07 22:43:24;;;;;;;2.72;0.80;;;;;;;;;;5092953;28;20020;-60
2021/08/07 22:45:50;;;;;;;7.47;0.82;;;;;;;;;;5092860;28;20451;-61
2021/08/07 22:48:16;;;;;;;4.45;0.60;;;;;;;;;;5092956;28;20043;-61
2021/08/07 22:50:42;;;;;;;3.65;0.70;;;;;;;;;;5092669;28;20024;-61
2021/08/07 22:53:08;;;;;;;3.35;0.60;;;;;;;;;;5092926;28;20540;-61
2021/08/07 22:55:34;;;;;;;3.72;0.70;;;;;;;;;;5075085;28;20414;-62
2021/08/07 22:58:00;;;;;;;1.60;0.55;;;;;;;;;;5074676;28;20485;-62
2021/08/07 23:00:27;;;;;;;2.75;0.80;;;;;;;;;;5092877;28;20058;-61
2021/08/07 23:02:53;;;;;;;4.97;0.60;;;;;;;;;;5093199;28;20024;-63
2021/08/07 23:05:19;;;;;;;3.50;0.60;;;;;;;;;;5092870;28;20449;-62
2021/08/07 23:07:45;;;;;;;4.47;0.80;;;;;;;;;;5092812;28;20036;-60
2021/08/07 23:10:11;;;;;;;1.52;0.55;;;;;;;;;;5097826;28;20039;-61
2021/08/07 23:12:37;;;;;;;3.35;0.70;;;;;;;;;;5074608;28;20032;-61
2021/08/07 23:15:04;;;;;;;2.97;0.70;;;;;;;;;;5092608;28;20024;-61
2021/08/07 23:17:30;;;;;;;1.98;0.70;;;;;;;;;;5092298;28;20024;-61
2021/08/07 23:19:56;;;;;;;1.50;0.80;;;;;;;;;;5092409;28;20016;-60
2021/08/07 23:22:22;;;;;;;1.92;0.70;;;;;;;;;;5092313;28;20020;-60
2021/08/07 23:24:48;;;;;;;1.15;0.55;;;;;;;;;;5092389;28;20020;-60
2021/08/07 23:27:14;;;;;;;1.73;0.75;;;;;;;;;;5091999;28;20495;-60
2021/08/07 23:29:40;;;;;;;2.45;0.77;;;;;;;;;;5092655;28;20036;-61
2021/08/07 23:32:07;;;;;;;1.30;0.70;;;;;;;;;;5096594;28;20028;-61
2021/08/07 23:34:32;;;;;;;0.90;0.70;;;;;;;;;;5096504;28;20468;-60
2021/08/07 23:36:59;;;;;;;2.35;0.90;;;;;;;;;;5096752;28;20020;-60
2021/08/07 23:39:25;;;;;;;2.85;0.80;;;;;;;;;;5096274;28;20040;-60
2021/08/07 23:41:51;;;;;;;2.92;0.90;;;;;;;;;;5096260;28;20431;-60
2021/08/07 23:44:17;;;;;;;2.95;0.73;;;;;;;;;;5096439;28;20083;-60
2021/08/07 23:46:43;;;;;;;2.70;0.98;;;;;;;;;;5096288;28;20540;-61
2021/08/07 23:49:10;;;;;;;4.65;0.90;;;;;;;;;;5096127;28;20036;-61
2021/08/07 23:51:36;;;;;;;5.43;0.70;;;;;;;;;;5096192;28;20032;-61
2021/08/07 23:54:03;;;;;;;2.25;0.80;;;;;;;;;;5096060;28;20020;-61
2021/08/07 23:56:29;;;;;;;3.85;0.88;;;;;;;;;;5077779;28;20012;-62
2021/08/07 23:58:55;;;;;;;2.90;0.95;;;;;;;;;;5096259;28;20462;-63
